Time;durP1;ratioP1;P1;durP2;ratioP2;P2;SDS_P1;SDS_P2;PMS_P1;PMS_P2;Temp;Humidity;BMP_temperature;BMP_pressure;BME280_temperature;BME280_humidity;BME280_pressure;Samples;Min_cycle;Max_cycle;Signal;HPM_P1;HPM_P2
2021/04/29 00:01:10;;;;;;;8.90;5.90;;;9.00;68.70;;;;;;3576422;40;20051;-79
2021/04/29 00:03:37;;;;;;;12.25;5.80;;;8.90;69.30;;;;;;3567276;40;20247;-79
2021/04/29 00:06:03;;;;;;;8.60;5.53;;;8.90;69.30;;;;;;3559223;40;20374;-79
2021/04/29 00:08:29;;;;;;;12.25;6.60;;;8.90;70.60;;;;;;3576112;40;20048;-79
2021/04/29 00:10:56;;;;;;;10.45;7.38;;;8.90;75.50;;;;;;3575792;40;20052;-79
2021/04/29 00:13:22;;;;;;;14.35;6.90;;;8.90;70.60;;;;;;3576248;40;20036;-79
2021/04/29 00:15:48;;;;;;;12.45;5.72;;;8.90;69.90;;;;;;3576274;40;20043;-79
2021/04/29 00:18:17;;;;;;;10.07;6.68;;;8.90;70.60;;;;;;3563350;40;20048;-79
2021/04/29 00:20:44;;;;;;;12.05;6.40;;;8.90;67.70;;;;;;3568558;40;20068;-79
2021/04/29 00:23:11;;;;;;;10.43;6.70;;;8.80;72.50;;;;;;3567364;40;20033;-79
2021/04/29 00:25:38;;;;;;;13.75;6.75;;;8.90;71.40;;;;;;3566667;40;20137;-78
2021/04/29 00:28:03;;;;;;;11.23;7.25;;;8.90;74.20;;;;;;3576191;40;20057;-79
2021/04/29 00:30:30;;;;;;;13.77;7.43;;;8.90;72.40;;;;;;3575931;40;20036;-79
2021/04/29 00:32:56;;;;;;;14.95;7.57;;;8.90;70.70;;;;;;3576186;40;20043;-79
2021/04/29 00:35:22;;;;;;;11.38;6.45;;;8.90;72.80;;;;;;3566675;40;20060;-78
2021/04/29 00:37:48;;;;;;;11.95;6.78;;;8.90;69.00;;;;;;3556917;40;20041;-79
2021/04/29 00:40:15;;;;;;;13.55;7.60;;;8.90;70.40;;;;;;3574670;40;20049;-79
2021/04/29 00:42:42;;;;;;;15.93;7.97;;;8.90;68.80;;;;;;3576006;40;20780;-79
2021/04/29 00:45:12;;;;;;;11.52;7.97;;;8.90;73.10;;;;;;3558412;40;20037;-79
2021/04/29 00:47:39;;;;;;;12.57;6.22;;;8.80;72.50;;;;;;3576221;40;20080;-79
2021/04/29 00:50:08;;;;;;;11.45;7.18;;;8.80;72.10;;;;;;3576150;40;20048;-79
2021/04/29 00:52:34;;;;;;;12.07;8.15;;;8.70;71.80;;;;;;3575787;40;20041;-79
2021/04/29 00:55:01;;;;;;;14.30;7.90;;;8.70;76.10;;;;;;3575988;40;20130;-79
2021/04/29 00:57:27;;;;;;;12.95;7.65;;;8.60;72.10;;;;;;3574880;40;20069;-79
2021/04/29 00:59:54;;;;;;;13.20;7.18;;;8.60;69.70;;;;;;3575939;40;20130;-79
2021/04/29 01:02:24;;;;;;;11.85;6.88;;;8.60;69.70;;;;;;3576358;40;20056;-78
2021/04/29 01:04:49;;;;;;;14.73;6.97;;;8.60;76.70;;;;;;3579302;40;20067;-79
2021/04/29 01:07:16;;;;;;;12.82;8.43;;;8.60;77.20;;;;;;3577210;40;20085;-79
2021/04/29 01:09:54;;;;;;;15.85;9.15;;;8.50;71.00;;;;;;3568263;40;20539;-79
2021/04/29 01:12:26;;;;;;;13.40;8.32;;;8.50;72.10;;;;;;3577353;40;20041;-79
2021/04/29 01:14:54;;;;;;;13.20;8.20;;;8.60;72.20;;;;;;3568517;40;20045;-79
2021/04/29 01:17:21;;;;;;;12.73;8.15;;;8.60;69.80;;;;;;3578886;40;20048;-79
2021/04/29 01:20:28;;;;;;;17.58;8.98;;;8.50;76.20;;;;;;3576333;40;20043;-79
2021/04/29 01:23:28;;;;;;;9.68;5.20;;;8.60;75.70;;;;;;3576755;40;20044;-79
2021/04/29 01:26:15;;;;;;;13.60;6.45;;;8.60;75.50;;;;;;3581590;40;20344;-79
2021/04/29 01:28:41;;;;;;;13.07;6.30;;;8.60;74.60;;;;;;3582511;40;20049;-79
2021/04/29 01:31:08;;;;;;;12.98;6.05;;;8.60;76.70;;;;;;3584030;40;20049;-79
2021/04/29 01:33:36;;;;;;;11.60;7.13;;;8.60;76.10;;;;;;3585834;40;20056;-79
2021/04/29 01:36:02;;;;;;;12.35;8.40;;;8.60;73.00;;;;;;3568212;40;20297;-79
2021/04/29 01:38:29;;;;;;;14.45;9.20;;;8.60;72.40;;;;;;3559503;40;20336;-79
2021/04/29 01:40:56;;;;;;;12.13;7.32;;;8.70;72.90;;;;;;3577162;40;20660;-79
2021/04/29 01:43:23;;;;;;;15.98;7.43;;;8.60;71.70;;;;;;3567254;40;20045;-79
2021/04/29 01:45:49;;;;;;;18.27;8.82;;;8.60;77.40;;;;;;3587247;40;20040;-80
2021/04/29 01:48:16;;;;;;;13.82;8.38;;;8.60;73.70;;;;;;3587116;40;20055;-79
2021/04/29 01:50:42;;;;;;;11.98;8.20;;;8.60;71.00;;;;;;3569738;40;20043;-78
2021/04/29 01:53:08;;;;;;;18.60;8.38;;;8.60;75.60;;;;;;3569964;40;20037;-79
2021/04/29 01:55:35;;;;;;;15.63;8.38;;;8.60;73.50;;;;;;3568023;40;20063;-79
2021/04/29 01:58:01;;;;;;;16.20;8.68;;;8.60;74.10;;;;;;3577268;40;20101;-79
2021/04/29 02:00:27;;;;;;;14.15;8.80;;;8.60;72.60;;;;;;3577119;40;20235;-79
2021/04/29 02:02:53;;;;;;;12.90;7.57;;;8.60;73.80;;;;;;3566700;40;20045;-79
2021/04/29 02:05:19;;;;;;;14.25;7.80;;;8.50;75.30;;;;;;3566945;40;20143;-79
2021/04/29 02:07:45;;;;;;;14.00;6.90;;;8.60;74.40;;;;;;3558038;40;20235;-79
2021/04/29 02:10:11;;;;;;;18.50;7.13;;;8.60;72.30;;;;;;3566732;40;20053;-79
2021/04/29 02:12:43;;;;;;;11.68;6.88;;;8.50;72.30;;;;;;3557702;40;20053;-80
2021/04/29 02:15:11;;;;;;;13.65;7.03;;;8.50;72.10;;;;;;3568783;40;20037;-79
2021/04/29 02:17:55;;;;;;;12.05;6.70;;;8.50;72.10;;;;;;3560064;40;20041;-79
2021/04/29 02:20:23;;;;;;;11.30;6.00;;;8.60;74.10;;;;;;3566681;40;20049;-79
2021/04/29 02:22:50;;;;;;;9.88;6.78;;;8.50;77.30;;;;;;3580085;40;20060;-79
2021/04/29 02:25:23;;;;;;;12.57;7.55;;;8.50;73.40;;;;;;3583536;40;20040;-79
2021/04/29 02:27:50;;;;;;;12.03;8.00;;;8.50;72.50;;;;;;3580286;40;20057;-79
2021/04/29 02:30:17;;;;;;;12.52;7.53;;;8.50;77.30;;;;;;3560072;40;20037;-79
2021/04/29 02:32:43;;;;;;;14.18;8.70;;;8.50;75.30;;;;;;3567091;40;20056;-79
2021/04/29 02:35:14;;;;;;;13.75;7.18;;;8.50;73.60;;;;;;3573458;40;20059;-79
2021/04/29 02:37:41;;;;;;;13.05;6.88;;;8.50;73.70;;;;;;3576635;40;20090;-79
2021/04/29 02:40:08;;;;;;;14.48;8.32;;;8.50;76.40;;;;;;3580101;40;20040;-79
2021/04/29 02:42:35;;;;;;;13.50;7.85;;;8.50;73.70;;;;;;3573736;40;20294;-79
2021/04/29 02:45:01;;;;;;;14.63;8.00;;;8.50;75.20;;;;;;3567073;40;20045;-79
2021/04/29 02:47:27;;;;;;;16.85;8.93;;;8.50;78.10;;;;;;3562358;40;20036;-79
2021/04/29 02:49:53;;;;;;;11.48;7.63;;;8.50;73.60;;;;;;3585548;40;20040;-79
2021/04/29 02:52:20;;;;;;;15.20;8.50;;;8.50;75.80;;;;;;3570243;40;20323;-79
2021/04/29 02:54:46;;;;;;;19.08;8.95;;;8.50;75.90;;;;;;3576641;40;20045;-80
2021/04/29 02:57:22;;;;;;;10.80;6.57;;;8.40;76.50;;;;;;3576550;40;20048;-79
2021/04/29 02:59:49;;;;;;;14.95;8.15;;;8.40;77.50;;;;;;3576744;40;20139;-79
2021/04/29 03:02:16;;;;;;;17.60;8.48;;;8.40;77.10;;;;;;3557358;40;20099;-79
2021/04/29 03:04:42;;;;;;;13.82;7.57;;;8.40;75.70;;;;;;3565147;40;20080;-79
2021/04/29 03:07:08;;;;;;;17.55;8.98;;;8.30;74.50;;;;;;3576698;40;20360;-79
2021/04/29 03:09:35;;;;;;;10.50;7.88;;;8.40;74.20;;;;;;3576536;40;20044;-79
2021/04/29 03:12:01;;;;;;;13.07;7.25;;;8.50;75.50;;;;;;3576657;40;20052;-79
2021/04/29 03:14:26;;;;;;;14.15;8.80;;;8.40;75.10;;;;;;3567357;40;20041;-79
2021/04/29 03:16:52;;;;;;;14.70;7.13;;;8.40;75.10;;;;;;3576772;40;20357;-79
2021/04/29 03:19:18;;;;;;;15.55;9.30;;;8.40;79.80;;;;;;3565473;40;20068;-79
2021/04/29 03:21:44;;;;;;;17.15;8.88;;;8.40;76.00;;;;;;3573609;40;20049;-79
2021/04/29 03:24:10;;;;;;;16.50;9.15;;;8.40;75.50;;;;;;3567784;40;20045;-79
2021/04/29 03:26:36;;;;;;;17.60;9.95;;;8.40;80.30;;;;;;3567847;40;20043;-79
2021/04/29 03:29:02;;;;;;;15.52;11.15;;;8.30;78.20;;;;;;3576516;40;20043;-79
2021/04/29 03:31:28;;;;;;;19.00;11.60;;;8.30;77.50;;;;;;3583765;40;20133;-79
2021/04/29 03:33:54;;;;;;;16.30;10.88;;;8.30;76.10;;;;;;3586475;40;20056;-80
2021/04/29 03:36:20;;;;;;;16.35;11.98;;;8.30;76.40;;;;;;3582588;40;20037;-79
2021/04/29 03:38:46;;;;;;;19.23;10.48;;;8.30;76.40;;;;;;3578148;40;20044;-79
2021/04/29 03:41:11;;;;;;;22.75;12.52;;;8.30;76.00;;;;;;3577327;40;20318;-79
2021/04/29 03:43:37;;;;;;;18.02;11.35;;;8.30;77.50;;;;;;3567673;40;20243;-79
2021/04/29 03:46:03;;;;;;;23.95;15.45;;;8.30;79.30;;;;;;3578489;40;20084;-79
2021/04/29 03:48:29;;;;;;;22.10;13.80;;;8.30;77.70;;;;;;3567109;40;20600;-79
2021/04/29 03:50:55;;;;;;;24.17;13.75;;;8.30;77.80;;;;;;3567283;40;20036;-79
2021/04/29 03:53:20;;;;;;;24.92;14.73;;;8.30;77.40;;;;;;3571022;40;20029;-79
2021/04/29 03:55:46;;;;;;;27.52;15.85;;;8.30;77.00;;;;;;3575621;40;20336;-79
2021/04/29 03:58:13;;;;;;;22.48;14.45;;;8.30;77.60;;;;;;3571881;40;20230;-79
2021/04/29 04:00:38;;;;;;;26.38;16.15;;;8.30;78.90;;;;;;3586533;40;20036;-79
2021/04/29 04:03:04;;;;;;;34.22;17.67;;;8.20;79.60;;;;;;3584011;40;20463;-79
2021/04/29 04:05:30;;;;;;;32.10;17.58;;;8.30;79.40;;;;;;3576432;40;20049;-79
2021/04/29 04:07:56;;;;;;;29.50;16.48;;;8.20;81.90;;;;;;3576381;40;20044;-79
2021/04/29 04:10:22;;;;;;;25.45;13.98;;;8.20;76.80;;;;;;3566841;40;20354;-79
2021/04/29 04:12:48;;;;;;;24.77;15.00;;;8.20;81.60;;;;;;3567158;40;20154;-79
2021/04/29 04:15:13;;;;;;;26.73;15.82;;;8.20;82.50;;;;;;3581626;40;20209;-78
2021/04/29 04:17:39;;;;;;;25.80;14.93;;;8.20;81.40;;;;;;3586071;40;20339;-79
2021/04/29 04:20:06;;;;;;;23.92;14.77;;;8.10;80.10;;;;;;3566090;40;20304;-79
2021/04/29 04:22:31;;;;;;;21.27;13.32;;;8.10;80.50;;;;;;3578036;40;20638;-78
2021/04/29 04:24:57;;;;;;;23.27;13.38;;;8.20;82.50;;;;;;3576248;40;20040;-79
2021/04/29 04:27:23;;;;;;;25.05;14.35;;;8.10;78.10;;;;;;3576017;40;20092;-79
2021/04/29 04:29:49;;;;;;;24.27;14.50;;;8.10;78.60;;;;;;3576470;40;20041;-79
2021/04/29 04:32:14;;;;;;;23.60;13.90;;;8.10;83.70;;;;;;3576124;40;20048;-79
2021/04/29 04:34:40;;;;;;;24.83;13.60;;;8.10;81.50;;;;;;3566953;40;20051;-78
2021/04/29 04:37:06;;;;;;;22.65;14.68;;;8.10;82.70;;;;;;3575914;40;20049;-79
2021/04/29 04:39:33;;;;;;;23.15;14.60;;;8.10;82.90;;;;;;3576084;40;20045;-79
2021/04/29 04:41:59;;;;;;;22.45;13.10;;;8.20;80.80;;;;;;3569292;40;20044;-79
2021/04/29 04:44:25;;;;;;;26.20;14.73;;;8.20;81.70;;;;;;3576029;40;20041;-79
2021/04/29 04:46:51;;;;;;;19.02;12.55;;;8.20;81.30;;;;;;3577080;40;20040;-79
2021/04/29 04:49:17;;;;;;;23.98;13.75;;;8.10;82.40;;;;;;3576027;40;20135;-79
2021/04/29 04:51:46;;;;;;;27.98;14.75;;;8.20;82.00;;;;;;3576768;40;20545;-79
2021/04/29 04:54:13;;;;;;;24.73;13.88;;;8.10;83.30;;;;;;3575967;40;20342;-79
2021/04/29 04:56:39;;;;;;;25.40;14.43;;;8.20;79.80;;;;;;3575237;40;20041;-79
2021/04/29 04:59:05;;;;;;;22.60;12.63;;;8.20;84.90;;;;;;3566154;40;20049;-79
2021/04/29 05:01:31;;;;;;;24.52;13.07;;;8.20;83.50;;;;;;3574354;40;20063;-79
2021/04/29 05:03:57;;;;;;;25.25;14.13;;;8.20;86.00;;;;;;3578179;40;20044;-79
2021/04/29 05:06:23;;;;;;;25.83;14.60;;;8.20;80.30;;;;;;3566209;40;20362;-79
2021/04/29 05:08:49;;;;;;;26.13;15.05;;;8.20;82.60;;;;;;3566385;40;20036;-79
2021/04/29 05:11:17;;;;;;;21.52;13.13;;;8.30;85.00;;;;;;3578102;40;20041;-78
2021/04/29 05:13:43;;;;;;;25.50;14.25;;;8.20;85.70;;;;;;3579149;40;20346;-79
2021/04/29 05:16:08;;;;;;;23.30;13.70;;;8.20;86.50;;;;;;3576122;40;20040;-79
2021/04/29 05:18:34;;;;;;;25.00;14.00;;;8.20;84.60;;;;;;3575802;40;20051;-79
2021/04/29 05:21:00;;;;;;;24.38;15.48;;;8.30;84.30;;;;;;3576079;40;20028;-79
2021/04/29 05:23:26;;;;;;;25.05;14.43;;;8.30;83.40;;;;;;3575873;40;20494;-79
2021/04/29 05:25:52;;;;;;;21.65;12.10;;;8.30;85.40;;;;;;3575664;40;20044;-79
2021/04/29 05:28:18;;;;;;;24.13;13.32;;;8.30;84.20;;;;;;3577801;40;20044;-79
2021/04/29 05:30:43;;;;;;;29.08;14.00;;;8.30;82.30;;;;;;3579320;40;20191;-79
2021/04/29 05:33:09;;;;;;;25.50;14.73;;;8.30;82.10;;;;;;3577976;40;20679;-79
2021/04/29 05:35:35;;;;;;;20.73;12.70;;;8.30;81.60;;;;;;3578050;40;20268;-79
2021/04/29 05:38:01;;;;;;;22.10;13.27;;;8.40;81.50;;;;;;3577560;40;20052;-80
2021/04/29 05:40:27;;;;;;;22.95;12.25;;;8.40;87.00;;;;;;3576410;40;20029;-79
2021/04/29 05:42:53;;;;;;;19.88;12.55;;;8.40;80.50;;;;;;3577455;40;20045;-79
2021/04/29 05:45:19;;;;;;;24.67;12.95;;;8.50;81.50;;;;;;3566455;40;20053;-79
2021/04/29 05:47:45;;;;;;;26.08;12.90;;;8.50;81.00;;;;;;3567452;40;20052;-79
2021/04/29 05:50:11;;;;;;;22.50;12.27;;;8.60;84.20;;;;;;3576816;40;20077;-78
2021/04/29 05:52:38;;;;;;;22.17;12.65;;;8.60;82.30;;;;;;3578298;40;20315;-79
2021/04/29 05:55:05;;;;;;;18.17;10.93;;;8.70;82.10;;;;;;3581457;40;20036;-79
2021/04/29 05:57:31;;;;;;;21.65;11.93;;;8.70;85.10;;;;;;3579041;40;20097;-79
2021/04/29 05:59:57;;;;;;;23.00;10.85;;;8.80;81.00;;;;;;3580801;40;20350;-79
2021/04/29 06:02:23;;;;;;;22.75;12.43;;;8.90;84.10;;;;;;3577688;40;20040;-79
2021/04/29 06:04:49;;;;;;;24.88;12.60;;;9.10;80.10;;;;;;3578667;40;20040;-79
2021/04/29 06:07:15;;;;;;;20.02;13.25;;;9.40;81.90;;;;;;3576043;40;20380;-79
2021/04/29 06:09:41;;;;;;;20.92;12.68;;;9.80;81.70;;;;;;3579056;40;20131;-79
2021/04/29 06:12:07;;;;;;;21.50;12.98;;;10.30;79.60;;;;;;3579133;40;20041;-79
2021/04/29 06:14:34;;;;;;;18.50;12.15;;;10.70;78.60;;;;;;3578292;40;20041;-79
2021/04/29 06:17:01;;;;;;;20.05;12.45;;;11.00;79.10;;;;;;3577859;40;20123;-79
2021/04/29 06:19:26;;;;;;;18.42;12.70;;;11.30;77.50;;;;;;3566263;40;20101;-79
2021/04/29 06:21:52;;;;;;;18.27;11.90;;;11.40;77.40;;;;;;3577102;40;20045;-79
2021/04/29 06:24:18;;;;;;;21.50;12.65;;;11.50;76.80;;;;;;3579745;40;20591;-79
2021/04/29 06:26:44;;;;;;;21.35;11.98;;;11.20;76.50;;;;;;3578637;40;20126;-78
2021/04/29 06:29:10;;;;;;;20.00;12.75;;;10.80;77.30;;;;;;3581010;40;20041;-79
2021/04/29 06:31:38;;;;;;;19.75;12.75;;;10.50;77.60;;;;;;3579257;40;20041;-79
2021/04/29 06:34:04;;;;;;;21.42;12.43;;;10.40;77.30;;;;;;3570391;40;20130;-79
2021/04/29 06:36:31;;;;;;;17.35;11.45;;;10.30;78.00;;;;;;3577349;40;20048;-79
2021/04/29 06:38:57;;;;;;;17.05;10.82;;;10.30;78.30;;;;;;3568447;40;20053;-79
2021/04/29 06:41:23;;;;;;;19.15;12.48;;;10.20;78.50;;;;;;3577879;40;20040;-79
2021/04/29 06:43:50;;;;;;;19.10;12.18;;;10.10;78.00;;;;;;3577025;40;20130;-79
2021/04/29 06:46:16;;;;;;;18.98;11.85;;;10.10;79.00;;;;;;3578866;40;20363;-79
2021/04/29 06:48:42;;;;;;;19.95;11.80;;;10.10;77.30;;;;;;3580559;40;20057;-79
2021/04/29 06:51:08;;;;;;;18.85;11.70;;;10.20;77.80;;;;;;3580588;40;20043;-79
2021/04/29 06:53:34;;;;;;;20.58;12.55;;;10.40;79.10;;;;;;3578208;40;20517;-79
2021/04/29 06:55:59;;;;;;;19.38;11.98;;;10.70;78.60;;;;;;3569735;40;20037;-78
2021/04/29 06:58:27;;;;;;;19.48;11.35;;;10.90;78.90;;;;;;3579277;40;20045;-79
2021/04/29 07:00:54;;;;;;;18.48;12.20;;;11.10;77.70;;;;;;3577521;40;20063;-79
2021/04/29 07:03:19;;;;;;;16.63;11.32;;;11.50;77.20;;;;;;3568088;40;20777;-79
2021/04/29 07:05:45;;;;;;;18.42;11.73;;;11.70;76.30;;;;;;3576404;40;20057;-79
2021/04/29 07:08:12;;;;;;;15.48;10.90;;;11.80;75.80;;;;;;3577979;40;20044;-79
2021/04/29 07:10:38;;;;;;;18.38;11.13;;;11.60;76.30;;;;;;3579039;40;20075;-79
2021/04/29 07:13:05;;;;;;;16.80;10.75;;;11.40;75.50;;;;;;3577780;40;20334;-79
2021/04/29 07:15:31;;;;;;;16.40;10.35;;;11.20;75.90;;;;;;3577619;40;20417;-80
2021/04/29 07:17:58;;;;;;;18.52;10.88;;;11.00;76.30;;;;;;3576504;40;20714;-79
2021/04/29 07:20:24;;;;;;;17.27;11.18;;;11.00;76.70;;;;;;3577333;40;20320;-79
2021/04/29 07:22:50;;;;;;;14.88;11.43;;;10.90;76.70;;;;;;3580713;40;20045;-79
2021/04/29 07:25:15;;;;;;;16.42;10.77;;;10.90;76.60;;;;;;3578824;40;20060;-79
2021/04/29 07:27:41;;;;;;;16.00;10.50;;;10.90;76.60;;;;;;3575383;40;20048;-79
2021/04/29 07:30:09;;;;;;;17.60;10.40;;;10.90;76.60;;;;;;3568997;40;20044;-79
2021/04/29 07:32:35;;;;;;;15.68;9.88;;;10.90;75.90;;;;;;3579413;40;20332;-79
2021/04/29 07:35:03;;;;;;;16.42;9.93;;;10.90;76.90;;;;;;3577527;40;20096;-79
2021/04/29 07:37:29;;;;;;;16.80;12.07;;;10.80;76.10;;;;;;3577448;40;20167;-79
2021/04/29 07:39:55;;;;;;;15.60;9.80;;;10.80;76.70;;;;;;3576271;40;20056;-79
2021/04/29 07:42:22;;;;;;;13.85;9.93;;;10.80;76.40;;;;;;3576723;40;20049;-79
2021/04/29 07:44:48;;;;;;;13.13;10.55;;;10.70;76.30;;;;;;3572771;40;20381;-78
2021/04/29 07:47:14;;;;;;;17.33;10.85;;;10.70;76.50;;;;;;3579022;40;20073;-79
2021/04/29 07:49:40;;;;;;;14.60;10.45;;;10.60;76.30;;;;;;3571799;40;20048;-79
2021/04/29 07:52:07;;;;;;;15.13;10.43;;;10.50;76.70;;;;;;3568659;40;20060;-79
2021/04/29 07:54:33;;;;;;;19.30;11.52;;;10.50;76.80;;;;;;3578561;40;20070;-79
2021/04/29 07:56:59;;;;;;;14.77;9.90;;;10.50;77.90;;;;;;3577672;40;20033;-79
2021/04/29 07:59:24;;;;;;;17.85;11.25;;;10.60;77.00;;;;;;3577609;40;20433;-79
2021/04/29 08:01:52;;;;;;;16.20;11.02;;;10.70;77.80;;;;;;3567679;40;20051;-79
2021/04/29 08:04:18;;;;;;;20.85;11.75;;;10.90;77.60;;;;;;3576059;40;20048;-79
2021/04/29 08:06:43;;;;;;;15.43;10.00;;;11.00;76.00;;;;;;3576803;40;20047;-79
2021/04/29 08:09:09;;;;;;;17.08;10.50;;;11.10;76.70;;;;;;3576141;40;20060;-79
2021/04/29 08:11:35;;;;;;;16.25;10.65;;;11.10;77.00;;;;;;3576773;40;20079;-79
2021/04/29 08:14:01;;;;;;;17.58;10.40;;;11.20;76.70;;;;;;3575888;40;20274;-78
2021/04/29 08:16:27;;;;;;;16.70;10.38;;;11.10;77.50;;;;;;3578663;40;20056;-79
2021/04/29 08:18:53;;;;;;;16.92;10.82;;;11.10;76.70;;;;;;3579868;40;20047;-79
2021/04/29 08:21:19;;;;;;;13.70;10.70;;;11.10;77.70;;;;;;3579600;40;20049;-79
2021/04/29 08:23:44;;;;;;;15.27;10.90;;;11.10;77.50;;;;;;3579122;40;20048;-79
2021/04/29 08:26:10;;;;;;;17.42;11.55;;;11.00;78.00;;;;;;3578171;40;20130;-79
2021/04/29 08:28:37;;;;;;;15.73;10.52;;;11.00;77.30;;;;;;3577202;40;20160;-79
2021/04/29 08:31:03;;;;;;;16.65;11.52;;;11.10;78.20;;;;;;3578457;40;20041;-79
2021/04/29 08:33:29;;;;;;;15.18;11.57;;;11.10;78.00;;;;;;3575956;40;20040;-79
2021/04/29 08:35:55;;;;;;;17.35;12.32;;;11.10;80.40;;;;;;3576648;40;20043;-79
2021/04/29 08:38:21;;;;;;;17.02;10.15;;;11.10;80.70;;;;;;3566694;40;20044;-78
2021/04/29 08:40:47;;;;;;;21.85;11.23;;;11.10;79.40;;;;;;3570491;40;20041;-77
2021/04/29 08:43:13;;;;;;;17.77;13.35;;;11.10;79.20;;;;;;3580855;40;20044;-78
2021/04/29 08:45:44;;;;;;;19.35;12.02;;;10.90;79.70;;;;;;3577323;40;20048;-77
2021/04/29 08:48:11;;;;;;;20.27;12.95;;;10.90;80.20;;;;;;3566391;40;20045;-77
2021/04/29 08:50:37;;;;;;;22.58;13.98;;;10.80;78.40;;;;;;3577565;40;20047;-76
2021/04/29 08:53:03;;;;;;;21.35;13.50;;;10.80;81.00;;;;;;3569106;40;20043;-77
2021/04/29 08:55:29;;;;;;;16.80;12.57;;;10.80;81.00;;;;;;3576589;40;20065;-76
2021/04/29 08:57:55;;;;;;;17.08;12.77;;;10.80;77.80;;;;;;3577067;40;20044;-77
2021/04/29 09:00:22;;;;;;;19.17;13.20;;;10.80;77.90;;;;;;3574781;40;20041;-76
2021/04/29 09:02:49;;;;;;;16.30;12.68;;;10.70;79.80;;;;;;3567213;40;20036;-77
2021/04/29 09:05:19;;;;;;;20.17;14.23;;;10.70;80.30;;;;;;3576908;40;20609;-77
2021/04/29 09:07:51;;;;;;;18.58;12.35;;;10.70;80.00;;;;;;3567065;40;20037;-77
2021/04/29 09:10:29;;;;;;;18.45;12.90;;;10.70;79.40;;;;;;3566426;40;20107;-76
2021/04/29 09:12:57;;;;;;;18.05;11.75;;;10.70;81.50;;;;;;3569841;40;20310;-76
2021/04/29 09:15:29;;;;;;;19.90;12.95;;;10.70;78.00;;;;;;3579350;40;20041;-77
2021/04/29 09:18:15;;;;;;;19.38;11.88;;;10.60;79.60;;;;;;3577830;40;20089;-76
2021/04/29 09:21:05;;;;;;;20.50;14.05;;;10.60;82.70;;;;;;3579192;40;20155;-77
2021/04/29 09:23:35;;;;;;;19.23;13.30;;;10.60;84.30;;;;;;3568956;40;20316;-76
2021/04/29 09:26:07;;;;;;;16.23;11.35;;;10.60;81.90;;;;;;3576821;40;20256;-76
2021/04/29 09:28:47;;;;;;;18.88;13.02;;;10.60;81.00;;;;;;3578242;40;20041;-77
2021/04/29 09:31:20;;;;;;;19.52;11.90;;;10.60;80.80;;;;;;3576251;40;20134;-77
2021/04/29 09:33:58;;;;;;;16.27;11.60;;;10.60;81.70;;;;;;3574461;40;20368;-77
2021/04/29 09:36:27;;;;;;;18.88;13.60;;;10.50;81.20;;;;;;3579892;40;20040;-77
2021/04/29 09:38:55;;;;;;;20.02;13.65;;;10.50;80.30;;;;;;3580053;40;20052;-77
2021/04/29 09:41:27;;;;;;;17.50;12.13;;;10.50;79.10;;;;;;3567457;40;20048;-77
2021/04/29 09:44:15;;;;;;;18.55;12.50;;;10.50;81.80;;;;;;3579391;40;20474;-76
2021/04/29 09:46:45;;;;;;;17.98;11.73;;;10.60;82.50;;;;;;3577946;40;20081;-76
2021/04/29 09:49:26;;;;;;;17.55;12.40;;;10.60;81.60;;;;;;3569543;40;20045;-76
2021/04/29 09:51:54;;;;;;;20.52;12.95;;;10.70;84.90;;;;;;3568746;40;20155;-77
2021/04/29 09:54:38;;;;;;;21.13;14.52;;;10.70;85.40;;;;;;3577451;40;20058;-76
2021/04/29 09:57:06;;;;;;;22.35;13.13;;;10.80;85.10;;;;;;3577305;40;20051;-76
2021/04/29 09:59:34;;;;;;;17.65;12.75;;;10.90;82.50;;;;;;3577865;40;20036;-76
2021/04/29 10:02:01;;;;;;;19.58;12.40;;;11.00;80.10;;;;;;3581453;40;20049;-76
2021/04/29 10:04:29;;;;;;;18.23;12.93;;;11.00;81.80;;;;;;3578766;40;20472;-76
2021/04/29 10:06:56;;;;;;;18.50;13.43;;;11.00;80.10;;;;;;3576625;40;20098;-77
2021/04/29 10:09:28;;;;;;;21.05;13.68;;;11.00;81.00;;;;;;3579793;40;20040;-76
2021/04/29 10:12:02;;;;;;;17.65;13.07;;;11.00;83.20;;;;;;3580666;40;20045;-77
2021/04/29 10:14:35;;;;;;;17.48;12.75;;;11.00;82.90;;;;;;3580325;40;20524;-76
2021/04/29 10:17:09;;;;;;;17.42;12.07;;;11.10;81.70;;;;;;3580031;40;20320;-77
2021/04/29 10:19:37;;;;;;;;;;;11.10;81.40;;;;;;3568162;40;20142;-77
2021/04/29 10:22:04;;;;;;;17.95;12.65;;;11.10;84.00;;;;;;3578698;40;19941;-77
2021/04/29 10:24:30;;;;;;;17.75;11.60;;;11.10;79.50;;;;;;3577795;40;20045;-76
2021/04/29 10:27:23;;;;;;;16.00;11.85;;;11.20;79.70;;;;;;3577488;40;20044;-76
2021/04/29 10:30:00;;;;;;;16.58;12.52;;;11.10;82.20;;;;;;3573455;40;20049;-76
2021/04/29 10:32:33;;;;;;;21.98;13.38;;;11.10;80.10;;;;;;3577982;40;20106;-77
2021/04/29 10:34:59;;;;;;;19.33;13.32;;;11.10;80.10;;;;;;3580505;40;20049;-76
2021/04/29 10:37:27;;;;;;;19.02;12.93;;;11.10;80.30;;;;;;3579981;40;20047;-77
2021/04/29 10:40:03;;;;;;;17.80;12.48;;;11.10;79.90;;;;;;3579695;40;20077;-77
2021/04/29 10:42:42;;;;;;;20.05;12.73;;;11.10;80.50;;;;;;3579333;40;20117;-77
2021/04/29 10:45:10;;;;;;;19.20;13.15;;;11.10;79.60;;;;;;3577743;40;20041;-76
2021/04/29 10:47:38;;;;;;;20.75;13.77;;;11.10;79.20;;;;;;3577917;40;20122;-77
2021/04/29 10:50:18;;;;;;;21.10;13.88;;;11.10;79.80;;;;;;3577248;40;20076;-77
2021/04/29 10:53:04;;;;;;;16.73;12.75;;;11.10;79.50;;;;;;3577064;40;20037;-77
2021/04/29 10:55:36;;;;;;;20.05;13.38;;;11.10;79.90;;;;;;3558958;40;20228;-77
2021/04/29 10:58:07;;;;;;;20.90;14.13;;;11.10;78.80;;;;;;3581532;40;20040;-76
2021/04/29 11:00:52;;;;;;;20.05;14.98;;;11.10;78.80;;;;;;3578950;40;20067;-77
2021/04/29 11:03:34;;;;;;;16.77;13.73;;;11.20;79.80;;;;;;3580718;40;20410;-77
2021/04/29 11:06:10;;;;;;;19.73;13.13;;;11.30;79.50;;;;;;3576683;40;20331;-77
2021/04/29 11:08:45;;;;;;;18.88;14.02;;;11.30;79.30;;;;;;3578015;40;20040;-77
2021/04/29 11:11:22;;;;;;;19.50;14.15;;;11.40;79.30;;;;;;3579164;40;20037;-77
2021/04/29 11:14:07;;;;;;;20.33;14.27;;;11.50;80.00;;;;;;3580666;40;20036;-76
2021/04/29 11:16:55;;;;;;;18.77;13.55;;;11.50;80.80;;;;;;3578165;40;20067;-77
2021/04/29 11:19:55;;;;;;;16.25;12.80;;;11.60;81.00;;;;;;3574681;40;20122;-76
2021/04/29 11:22:30;;;;;;;23.10;14.45;;;11.50;79.00;;;;;;3577625;40;20133;-77
2021/04/29 11:24:57;;;;;;;17.38;12.73;;;11.50;79.00;;;;;;3576850;40;20045;-76
2021/04/29 11:27:28;;;;;;;16.92;12.93;;;11.50;79.70;;;;;;3575201;40;20279;-77
2021/04/29 11:30:05;;;;;;;16.13;12.55;;;11.50;80.30;;;;;;3569358;40;20141;-77
2021/04/29 11:32:32;;;;;;;15.88;11.77;;;11.50;81.80;;;;;;3580772;40;20051;-77
2021/04/29 11:35:00;;;;;;;18.08;12.23;;;11.40;80.00;;;;;;3579286;40;20539;-77
2021/04/29 11:37:27;;;;;;;17.33;13.25;;;11.40;80.90;;;;;;3579177;40;20048;-77
2021/04/29 11:40:01;;;;;;;19.75;13.98;;;11.40;81.20;;;;;;3569227;40;20064;-77
2021/04/29 11:42:30;;;;;;;18.48;13.73;;;11.40;81.40;;;;;;3569175;40;20047;-76
2021/04/29 11:45:13;;;;;;;21.30;14.73;;;11.30;81.80;;;;;;3577187;40;20088;-77
2021/04/29 11:47:40;;;;;;;19.88;14.07;;;11.30;82.60;;;;;;3577221;40;20053;-77
2021/04/29 11:50:18;;;;;;;20.05;14.27;;;11.20;81.10;;;;;;3576312;40;20049;-77
2021/04/29 11:52:44;;;;;;;22.95;14.95;;;11.20;82.70;;;;;;3579174;40;20096;-78
2021/04/29 11:55:10;;;;;;;24.48;16.00;;;11.20;83.80;;;;;;3579804;40;20113;-77
2021/04/29 11:57:36;;;;;;;24.45;17.02;;;11.10;83.70;;;;;;3578982;40;20048;-76
2021/04/29 12:00:03;;;;;;;22.23;16.48;;;11.00;83.20;;;;;;3580329;40;20032;-76
2021/04/29 12:02:28;;;;;;;23.60;17.20;;;10.90;86.40;;;;;;3577069;40;20044;-76
2021/04/29 12:04:54;;;;;;;27.02;18.88;;;10.80;84.50;;;;;;3577578;40;20275;-76
2021/04/29 12:07:21;;;;;;;24.52;16.98;;;10.80;85.60;;;;;;3578511;40;20051;-76
2021/04/29 12:09:52;;;;;;;28.40;18.25;;;10.70;85.20;;;;;;3577535;40;20037;-76
2021/04/29 12:12:20;;;;;;;26.40;15.98;;;10.70;84.40;;;;;;3579297;40;20335;-75
2021/04/29 12:14:53;;;;;;;23.92;15.88;;;10.70;86.00;;;;;;3577690;40;20036;-75
2021/04/29 12:17:20;;;;;;;;;;;10.60;86.20;;;;;;3577733;40;20072;-75
2021/04/29 12:19:51;;;;;;;10.00;7.00;;;10.60;90.50;;;;;;3575882;40;19955;-75
2021/04/29 12:22:25;;;;;;;8.30;4.75;;;10.50;86.40;;;;;;3576264;40;20048;-75
2021/04/29 12:24:52;;;;;;;11.93;6.03;;;10.40;87.30;;;;;;3579298;40;20081;-75
2021/04/29 12:27:20;;;;;;;11.40;6.50;;;10.30;85.00;;;;;;3579892;40;20049;-75
2021/04/29 12:30:01;;;;;;;11.48;8.38;;;10.20;86.20;;;;;;3570484;40;20041;-75
2021/04/29 12:32:43;;;;;;;15.07;7.43;;;10.10;88.20;;;;;;3579561;40;20053;-75
2021/04/29 12:35:14;;;;;;;10.25;6.32;;;10.10;90.50;;;;;;3577376;40;20114;-75
2021/04/29 12:37:53;;;;;;;11.07;6.03;;;10.00;88.00;;;;;;3578908;40;20043;-76
2021/04/29 12:40:26;;;;;;;10.07;5.00;;;10.00;88.30;;;;;;3575272;40;20049;-76
2021/04/29 12:43:10;;;;;;;9.38;4.65;;;9.90;87.30;;;;;;3577222;40;20044;-77